sensor_id;sensor_type;location;lat;lon;timestamp;P1;durP1;ratioP1;P2;durP2;ratioP2
76863;SDS011;65834;52.364;9.754;2023-06-14T00:00:12;8.65;;;3.10;;
76863;SDS011;65834;52.364;9.754;2023-06-14T00:02:43;8.02;;;2.83;;
76863;SDS011;65834;52.364;9.754;2023-06-14T00:05:15;7.32;;;3.13;;
76863;SDS011;65834;52.364;9.754;2023-06-14T00:07:45;7.57;;;3.03;;
76863;SDS011;65834;52.364;9.754;2023-06-14T00:10:15;6.53;;;2.80;;
76863;SDS011;65834;52.364;9.754;2023-06-14T00:12:44;9.35;;;3.40;;
76863;SDS011;65834;52.364;9.754;2023-06-14T00:15:14;7.70;;;2.97;;
76863;SDS011;65834;52.364;9.754;2023-06-14T00:17:44;7.47;;;3.20;;
76863;SDS011;65834;52.364;9.754;2023-06-14T00:20:16;7.65;;;3.33;;
76863;SDS011;65834;52.364;9.754;2023-06-14T00:22:46;6.47;;;2.78;;
76863;SDS011;65834;52.364;9.754;2023-06-14T00:25:16;7.22;;;2.85;;
76863;SDS011;65834;52.364;9.754;2023-06-14T00:27:54;8.85;;;3.13;;
76863;SDS011;65834;52.364;9.754;2023-06-14T00:30:25;7.18;;;2.97;;
76863;SDS011;65834;52.364;9.754;2023-06-14T00:32:57;6.82;;;2.83;;
76863;SDS011;65834;52.364;9.754;2023-06-14T00:35:30;7.50;;;3.03;;
76863;SDS011;65834;52.364;9.754;2023-06-14T00:37:59;7.60;;;3.00;;
76863;SDS011;65834;52.364;9.754;2023-06-14T00:40:29;6.80;;;3.03;;
76863;SDS011;65834;52.364;9.754;2023-06-14T00:42:59;7.85;;;2.97;;
76863;SDS011;65834;52.364;9.754;2023-06-14T00:45:28;7.63;;;2.80;;
76863;SDS011;65834;52.364;9.754;2023-06-14T00:48:02;8.52;;;2.60;;
76863;SDS011;65834;52.364;9.754;2023-06-14T00:50:36;7.78;;;2.55;;
76863;SDS011;65834;52.364;9.754;2023-06-14T00:53:08;6.93;;;2.50;;
76863;SDS011;65834;52.364;9.754;2023-06-14T00:55:37;5.53;;;2.55;;
76863;SDS011;65834;52.364;9.754;2023-06-14T00:58:07;7.85;;;2.88;;
76863;SDS011;65834;52.364;9.754;2023-06-14T01:00:41;9.88;;;2.95;;
76863;SDS011;65834;52.364;9.754;2023-06-14T01:03:10;7.13;;;2.88;;
76863;SDS011;65834;52.364;9.754;2023-06-14T01:05:48;8.25;;;3.00;;
76863;SDS011;65834;52.364;9.754;2023-06-14T01:08:21;7.97;;;2.90;;
76863;SDS011;65834;52.364;9.754;2023-06-14T01:10:58;8.10;;;3.15;;
76863;SDS011;65834;52.364;9.754;2023-06-14T01:13:32;8.63;;;3.20;;
76863;SDS011;65834;52.364;9.754;2023-06-14T01:16:03;8.55;;;2.88;;
76863;SDS011;65834;52.364;9.754;2023-06-14T01:18:34;7.88;;;3.00;;
76863;SDS011;65834;52.364;9.754;2023-06-14T01:21:15;6.30;;;2.78;;
76863;SDS011;65834;52.364;9.754;2023-06-14T01:23:52;6.32;;;2.80;;
76863;SDS011;65834;52.364;9.754;2023-06-14T01:26:25;5.40;;;2.38;;
76863;SDS011;65834;52.364;9.754;2023-06-14T01:28:58;6.05;;;2.90;;
76863;SDS011;65834;52.364;9.754;2023-06-14T01:31:29;9.70;;;2.83;;
76863;SDS011;65834;52.364;9.754;2023-06-14T01:34:06;6.57;;;2.83;;
76863;SDS011;65834;52.364;9.754;2023-06-14T01:36:36;7.40;;;2.90;;
76863;SDS011;65834;52.364;9.754;2023-06-14T01:39:12;7.43;;;2.97;;
76863;SDS011;65834;52.364;9.754;2023-06-14T01:41:43;6.72;;;3.03;;
76863;SDS011;65834;52.364;9.754;2023-06-14T01:44:17;8.55;;;2.85;;
76863;SDS011;65834;52.364;9.754;2023-06-14T01:46:49;7.35;;;3.05;;
76863;SDS011;65834;52.364;9.754;2023-06-14T01:49:21;6.90;;;2.80;;
76863;SDS011;65834;52.364;9.754;2023-06-14T01:51:52;8.23;;;3.00;;
76863;SDS011;65834;52.364;9.754;2023-06-14T01:54:24;10.50;;;3.50;;
76863;SDS011;65834;52.364;9.754;2023-06-14T01:56:55;6.25;;;2.60;;
76863;SDS011;65834;52.364;9.754;2023-06-14T01:59:25;7.20;;;3.00;;
76863;SDS011;65834;52.364;9.754;2023-06-14T02:01:55;7.25;;;2.83;;
76863;SDS011;65834;52.364;9.754;2023-06-14T02:04:24;7.50;;;3.47;;
76863;SDS011;65834;52.364;9.754;2023-06-14T02:06:54;7.60;;;2.95;;
76863;SDS011;65834;52.364;9.754;2023-06-14T02:09:26;7.25;;;2.80;;
76863;SDS011;65834;52.364;9.754;2023-06-14T02:14:28;8.25;;;3.05;;
76863;SDS011;65834;52.364;9.754;2023-06-14T02:16:58;8.18;;;3.30;;
76863;SDS011;65834;52.364;9.754;2023-06-14T02:19:28;7.60;;;2.92;;
76863;SDS011;65834;52.364;9.754;2023-06-14T02:21:57;8.95;;;3.17;;
76863;SDS011;65834;52.364;9.754;2023-06-14T02:24:29;7.57;;;2.53;;
76863;SDS011;65834;52.364;9.754;2023-06-14T02:26:59;6.50;;;2.60;;
76863;SDS011;65834;52.364;9.754;2023-06-14T02:29:29;6.90;;;2.97;;
76863;SDS011;65834;52.364;9.754;2023-06-14T02:32:02;6.80;;;3.05;;
76863;SDS011;65834;52.364;9.754;2023-06-14T02:34:33;6.97;;;2.60;;
76863;SDS011;65834;52.364;9.754;2023-06-14T02:37:03;7.05;;;2.67;;
76863;SDS011;65834;52.364;9.754;2023-06-14T02:39:36;7.68;;;2.70;;
76863;SDS011;65834;52.364;9.754;2023-06-14T02:42:06;6.47;;;2.92;;
76863;SDS011;65834;52.364;9.754;2023-06-14T02:44:36;8.15;;;2.90;;
76863;SDS011;65834;52.364;9.754;2023-06-14T02:47:06;6.63;;;2.58;;
76863;SDS011;65834;52.364;9.754;2023-06-14T02:49:37;7.75;;;2.97;;
76863;SDS011;65834;52.364;9.754;2023-06-14T02:52:07;10.18;;;2.67;;
76863;SDS011;65834;52.364;9.754;2023-06-14T02:54:39;8.23;;;2.65;;
76863;SDS011;65834;52.364;9.754;2023-06-14T02:57:09;7.63;;;2.55;;
76863;SDS011;65834;52.364;9.754;2023-06-14T02:59:40;7.75;;;2.55;;
76863;SDS011;65834;52.364;9.754;2023-06-14T03:02:10;10.30;;;2.88;;
76863;SDS011;65834;52.364;9.754;2023-06-14T03:04:40;8.20;;;2.92;;
76863;SDS011;65834;52.364;9.754;2023-06-14T03:07:14;7.85;;;2.50;;
76863;SDS011;65834;52.364;9.754;2023-06-14T03:09:51;6.65;;;2.60;;
76863;SDS011;65834;52.364;9.754;2023-06-14T03:12:21;5.88;;;2.45;;
76863;SDS011;65834;52.364;9.754;2023-06-14T03:14:51;9.40;;;2.63;;
76863;SDS011;65834;52.364;9.754;2023-06-14T03:17:24;6.78;;;2.97;;
76863;SDS011;65834;52.364;9.754;2023-06-14T03:26:50;11.68;;;3.15;;
76863;SDS011;65834;52.364;9.754;2023-06-14T03:31:59;7.63;;;2.72;;
76863;SDS011;65834;52.364;9.754;2023-06-14T03:34:41;7.43;;;2.45;;
76863;SDS011;65834;52.364;9.754;2023-06-14T03:37:19;7.68;;;2.55;;
76863;SDS011;65834;52.364;9.754;2023-06-14T03:39:49;7.30;;;2.70;;
76863;SDS011;65834;52.364;9.754;2023-06-14T03:42:24;8.43;;;3.15;;
76863;SDS011;65834;52.364;9.754;2023-06-14T03:44:54;9.15;;;3.03;;
76863;SDS011;65834;52.364;9.754;2023-06-14T03:47:23;9.48;;;3.08;;
76863;SDS011;65834;52.364;9.754;2023-06-14T03:49:54;7.97;;;2.75;;
76863;SDS011;65834;52.364;9.754;2023-06-14T03:52:24;6.85;;;2.67;;
76863;SDS011;65834;52.364;9.754;2023-06-14T03:54:54;5.80;;;2.50;;
76863;SDS011;65834;52.364;9.754;2023-06-14T03:57:46;7.35;;;2.72;;
76863;SDS011;65834;52.364;9.754;2023-06-14T04:04:01;8.25;;;2.60;;
76863;SDS011;65834;52.364;9.754;2023-06-14T04:06:31;5.70;;;2.40;;
76863;SDS011;65834;52.364;9.754;2023-06-14T04:09:03;7.47;;;3.13;;
76863;SDS011;65834;52.364;9.754;2023-06-14T04:11:34;5.13;;;2.50;;
76863;SDS011;65834;52.364;9.754;2023-06-14T04:14:06;6.65;;;2.60;;
76863;SDS011;65834;52.364;9.754;2023-06-14T04:16:37;7.32;;;2.80;;
76863;SDS011;65834;52.364;9.754;2023-06-14T04:19:07;5.40;;;2.78;;
76863;SDS011;65834;52.364;9.754;2023-06-14T04:21:37;6.97;;;2.70;;
76863;SDS011;65834;52.364;9.754;2023-06-14T04:24:07;8.68;;;3.28;;
76863;SDS011;65834;52.364;9.754;2023-06-14T04:26:45;9.25;;;2.83;;
76863;SDS011;65834;52.364;9.754;2023-06-14T04:29:19;9.57;;;2.70;;
76863;SDS011;65834;52.364;9.754;2023-06-14T04:31:57;6.47;;;2.67;;
76863;SDS011;65834;52.364;9.754;2023-06-14T04:34:28;7.50;;;2.80;;
76863;SDS011;65834;52.364;9.754;2023-06-14T04:37:02;9.18;;;2.75;;
76863;SDS011;65834;52.364;9.754;2023-06-14T04:39:36;9.10;;;2.97;;
76863;SDS011;65834;52.364;9.754;2023-06-14T04:42:06;8.52;;;2.78;;
76863;SDS011;65834;52.364;9.754;2023-06-14T04:44:41;8.55;;;2.83;;
76863;SDS011;65834;52.364;9.754;2023-06-14T04:47:12;9.70;;;2.63;;
76863;SDS011;65834;52.364;9.754;2023-06-14T04:49:42;9.85;;;2.72;;
76863;SDS011;65834;52.364;9.754;2023-06-14T04:52:12;7.45;;;2.70;;
76863;SDS011;65834;52.364;9.754;2023-06-14T04:54:44;5.40;;;2.70;;
76863;SDS011;65834;52.364;9.754;2023-06-14T04:57:17;6.35;;;2.58;;
76863;SDS011;65834;52.364;9.754;2023-06-14T04:59:54;7.63;;;2.35;;
76863;SDS011;65834;52.364;9.754;2023-06-14T05:02:25;8.23;;;2.50;;
76863;SDS011;65834;52.364;9.754;2023-06-14T05:04:58;8.20;;;2.70;;
76863;SDS011;65834;52.364;9.754;2023-06-14T05:07:28;10.75;;;2.70;;
76863;SDS011;65834;52.364;9.754;2023-06-14T05:09:58;12.55;;;3.00;;
76863;SDS011;65834;52.364;9.754;2023-06-14T05:12:28;8.93;;;2.45;;
76863;SDS011;65834;52.364;9.754;2023-06-14T05:15:00;7.22;;;2.78;;
76863;SDS011;65834;52.364;9.754;2023-06-14T05:17:31;7.10;;;2.50;;
76863;SDS011;65834;52.364;9.754;2023-06-14T05:20:02;9.32;;;2.63;;
76863;SDS011;65834;52.364;9.754;2023-06-14T05:22:33;9.68;;;2.65;;
76863;SDS011;65834;52.364;9.754;2023-06-14T05:25:03;7.50;;;2.60;;
76863;SDS011;65834;52.364;9.754;2023-06-14T05:27:33;9.70;;;2.40;;
76863;SDS011;65834;52.364;9.754;2023-06-14T05:30:07;5.60;;;2.00;;
76863;SDS011;65834;52.364;9.754;2023-06-14T05:32:37;9.68;;;3.05;;
76863;SDS011;65834;52.364;9.754;2023-06-14T05:35:07;9.05;;;2.97;;
76863;SDS011;65834;52.364;9.754;2023-06-14T05:37:37;6.70;;;1.95;;
76863;SDS011;65834;52.364;9.754;2023-06-14T05:40:07;6.18;;;2.05;;
76863;SDS011;65834;52.364;9.754;2023-06-14T05:42:38;7.20;;;2.42;;
76863;SDS011;65834;52.364;9.754;2023-06-14T05:45:10;6.63;;;2.22;;
76863;SDS011;65834;52.364;9.754;2023-06-14T05:47:42;7.25;;;2.63;;
76863;SDS011;65834;52.364;9.754;2023-06-14T05:50:11;7.95;;;2.45;;
76863;SDS011;65834;52.364;9.754;2023-06-14T05:52:41;8.45;;;2.70;;
76863;SDS011;65834;52.364;9.754;2023-06-14T05:55:11;7.22;;;2.10;;
76863;SDS011;65834;52.364;9.754;2023-06-14T05:57:41;6.68;;;2.40;;
76863;SDS011;65834;52.364;9.754;2023-06-14T06:00:14;7.95;;;2.13;;
76863;SDS011;65834;52.364;9.754;2023-06-14T06:02:46;6.13;;;2.40;;
76863;SDS011;65834;52.364;9.754;2023-06-14T06:05:16;8.45;;;2.40;;
76863;SDS011;65834;52.364;9.754;2023-06-14T06:07:46;7.32;;;2.30;;
76863;SDS011;65834;52.364;9.754;2023-06-14T06:10:15;6.18;;;2.40;;
76863;SDS011;65834;52.364;9.754;2023-06-14T06:12:45;6.57;;;2.47;;
76863;SDS011;65834;52.364;9.754;2023-06-14T06:15:21;6.53;;;2.30;;
76863;SDS011;65834;52.364;9.754;2023-06-14T06:17:50;5.32;;;2.08;;
76863;SDS011;65834;52.364;9.754;2023-06-14T06:20:22;11.85;;;2.60;;
76863;SDS011;65834;52.364;9.754;2023-06-14T06:22:56;7.97;;;2.35;;
76863;SDS011;65834;52.364;9.754;2023-06-14T06:25:26;6.43;;;2.35;;
76863;SDS011;65834;52.364;9.754;2023-06-14T06:27:58;6.97;;;2.33;;
76863;SDS011;65834;52.364;9.754;2023-06-14T06:30:30;8.55;;;2.63;;
76863;SDS011;65834;52.364;9.754;2023-06-14T06:33:00;6.55;;;2.13;;
76863;SDS011;65834;52.364;9.754;2023-06-14T06:35:29;7.15;;;2.20;;
76863;SDS011;65834;52.364;9.754;2023-06-14T06:37:59;6.63;;;2.60;;
76863;SDS011;65834;52.364;9.754;2023-06-14T06:40:29;7.13;;;2.20;;
76863;SDS011;65834;52.364;9.754;2023-06-14T06:42:59;6.68;;;2.60;;
76863;SDS011;65834;52.364;9.754;2023-06-14T06:45:31;7.13;;;2.15;;
76863;SDS011;65834;52.364;9.754;2023-06-14T06:48:01;9.30;;;2.80;;
76863;SDS011;65834;52.364;9.754;2023-06-14T06:50:30;7.82;;;2.53;;
76863;SDS011;65834;52.364;9.754;2023-06-14T06:53:00;5.10;;;2.08;;
76863;SDS011;65834;52.364;9.754;2023-06-14T06:55:30;5.60;;;2.33;;
76863;SDS011;65834;52.364;9.754;2023-06-14T06:57:59;5.20;;;2.25;;
76863;SDS011;65834;52.364;9.754;2023-06-14T07:00:33;8.67;;;2.73;;
76863;SDS011;65834;52.364;9.754;2023-06-14T07:03:03;6.97;;;2.50;;
76863;SDS011;65834;52.364;9.754;2023-06-14T07:05:33;7.00;;;2.25;;
76863;SDS011;65834;52.364;9.754;2023-06-14T07:08:03;8.80;;;2.53;;
76863;SDS011;65834;52.364;9.754;2023-06-14T07:26:19;6.13;;;2.80;;
76863;SDS011;65834;52.364;9.754;2023-06-14T07:28:49;5.70;;;2.05;;
76863;SDS011;65834;52.364;9.754;2023-06-14T07:31:19;4.97;;;2.20;;
76863;SDS011;65834;52.364;9.754;2023-06-14T07:33:48;7.55;;;2.33;;
76863;SDS011;65834;52.364;9.754;2023-06-14T07:36:18;5.65;;;2.10;;
76863;SDS011;65834;52.364;9.754;2023-06-14T07:38:48;6.95;;;2.63;;
76863;SDS011;65834;52.364;9.754;2023-06-14T07:41:20;6.00;;;2.20;;
76863;SDS011;65834;52.364;9.754;2023-06-14T07:43:49;6.35;;;2.45;;
76863;SDS011;65834;52.364;9.754;2023-06-14T07:46:19;4.70;;;2.38;;
76863;SDS011;65834;52.364;9.754;2023-06-14T07:48:49;4.78;;;2.10;;
76863;SDS011;65834;52.364;9.754;2023-06-14T07:51:19;6.75;;;2.53;;
76863;SDS011;65834;52.364;9.754;2023-06-14T07:53:49;6.25;;;2.20;;
76863;SDS011;65834;52.364;9.754;2023-06-14T07:56:21;5.35;;;2.45;;
76863;SDS011;65834;52.364;9.754;2023-06-14T08:01:20;5.13;;;2.30;;
76863;SDS011;65834;52.364;9.754;2023-06-14T08:03:51;6.32;;;2.20;;
76863;SDS011;65834;52.364;9.754;2023-06-14T08:06:21;7.13;;;2.40;;
76863;SDS011;65834;52.364;9.754;2023-06-14T08:08:51;6.20;;;2.38;;
76863;SDS011;65834;52.364;9.754;2023-06-14T08:11:23;4.97;;;2.20;;
76863;SDS011;65834;52.364;9.754;2023-06-14T08:13:53;6.40;;;2.20;;
76863;SDS011;65834;52.364;9.754;2023-06-14T08:16:22;5.47;;;2.00;;
76863;SDS011;65834;52.364;9.754;2023-06-14T08:18:52;6.13;;;2.30;;
76863;SDS011;65834;52.364;9.754;2023-06-14T08:21:22;5.80;;;2.38;;
76863;SDS011;65834;52.364;9.754;2023-06-14T08:23:53;5.00;;;2.20;;
76863;SDS011;65834;52.364;9.754;2023-06-14T08:26:26;5.53;;;2.33;;
76863;SDS011;65834;52.364;9.754;2023-06-14T08:28:56;8.30;;;2.70;;
76863;SDS011;65834;52.364;9.754;2023-06-14T08:31:25;5.22;;;2.45;;
76863;SDS011;65834;52.364;9.754;2023-06-14T08:33:55;7.28;;;2.47;;
76863;SDS011;65834;52.364;9.754;2023-06-14T08:36:25;5.75;;;2.42;;
76863;SDS011;65834;52.364;9.754;2023-06-14T08:38:54;7.38;;;2.40;;
76863;SDS011;65834;52.364;9.754;2023-06-14T08:41:27;5.15;;;2.13;;
76863;SDS011;65834;52.364;9.754;2023-06-14T08:43:57;6.50;;;2.40;;
76863;SDS011;65834;52.364;9.754;2023-06-14T08:46:27;4.70;;;2.00;;
76863;SDS011;65834;52.364;9.754;2023-06-14T08:49:01;5.13;;;2.20;;
76863;SDS011;65834;52.364;9.754;2023-06-14T08:51:32;5.10;;;2.30;;
76863;SDS011;65834;52.364;9.754;2023-06-14T08:54:04;4.97;;;2.00;;
76863;SDS011;65834;52.364;9.754;2023-06-14T08:56:37;6.22;;;2.38;;
76863;SDS011;65834;52.364;9.754;2023-06-14T08:59:08;8.02;;;2.67;;
76863;SDS011;65834;52.364;9.754;2023-06-14T09:01:38;6.00;;;2.53;;
76863;SDS011;65834;52.364;9.754;2023-06-14T09:04:28;6.28;;;2.45;;
76863;SDS011;65834;52.364;9.754;2023-06-14T09:06:58;6.22;;;2.28;;
76863;SDS011;65834;52.364;9.754;2023-06-14T09:09:28;7.53;;;2.47;;
76863;SDS011;65834;52.364;9.754;2023-06-14T09:12:00;7.32;;;2.50;;
76863;SDS011;65834;52.364;9.754;2023-06-14T09:14:30;6.95;;;2.38;;
76863;SDS011;65834;52.364;9.754;2023-06-14T09:17:01;5.60;;;2.30;;
76863;SDS011;65834;52.364;9.754;2023-06-14T09:19:32;6.32;;;2.50;;
76863;SDS011;65834;52.364;9.754;2023-06-14T09:22:03;6.88;;;2.13;;
76863;SDS011;65834;52.364;9.754;2023-06-14T09:24:38;4.93;;;2.17;;
76863;SDS011;65834;52.364;9.754;2023-06-14T09:27:10;5.60;;;2.20;;
76863;SDS011;65834;52.364;9.754;2023-06-14T09:29:44;5.93;;;2.22;;
76863;SDS011;65834;52.364;9.754;2023-06-14T09:32:13;7.40;;;2.17;;
76863;SDS011;65834;52.364;9.754;2023-06-14T09:34:43;7.32;;;2.70;;
76863;SDS011;65834;52.364;9.754;2023-06-14T09:37:17;5.35;;;2.42;;
76863;SDS011;65834;52.364;9.754;2023-06-14T09:39:55;5.45;;;2.20;;
76863;SDS011;65834;52.364;9.754;2023-06-14T09:42:28;7.93;;;2.58;;
76863;SDS011;65834;52.364;9.754;2023-06-14T09:44:57;6.47;;;2.28;;
76863;SDS011;65834;52.364;9.754;2023-06-14T09:47:29;4.70;;;2.35;;
76863;SDS011;65834;52.364;9.754;2023-06-14T09:49:59;6.25;;;2.40;;
76863;SDS011;65834;52.364;9.754;2023-06-14T09:52:29;7.47;;;2.58;;
76863;SDS011;65834;52.364;9.754;2023-06-14T09:54:59;4.35;;;2.22;;
76863;SDS011;65834;52.364;9.754;2023-06-14T09:57:32;3.47;;;2.35;;
76863;SDS011;65834;52.364;9.754;2023-06-14T10:00:02;5.88;;;2.42;;
76863;SDS011;65834;52.364;9.754;2023-06-14T10:02:38;7.28;;;2.45;;
76863;SDS011;65834;52.364;9.754;2023-06-14T10:05:15;4.70;;;2.25;;
76863;SDS011;65834;52.364;9.754;2023-06-14T10:07:52;7.53;;;2.55;;
76863;SDS011;65834;52.364;9.754;2023-06-14T10:10:25;4.57;;;2.08;;
76863;SDS011;65834;52.364;9.754;2023-06-14T10:12:57;6.78;;;2.30;;
76863;SDS011;65834;52.364;9.754;2023-06-14T10:18:01;7.07;;;2.50;;
76863;SDS011;65834;52.364;9.754;2023-06-14T10:20:41;4.97;;;2.63;;
76863;SDS011;65834;52.364;9.754;2023-06-14T10:23:19;5.22;;;2.22;;
76863;SDS011;65834;52.364;9.754;2023-06-14T10:25:54;9.10;;;2.88;;
76863;SDS011;65834;52.364;9.754;2023-06-14T10:28:29;6.30;;;2.60;;
76863;SDS011;65834;52.364;9.754;2023-06-14T10:31:02;6.40;;;2.95;;
76863;SDS011;65834;52.364;9.754;2023-06-14T10:33:34;7.07;;;2.97;;
76863;SDS011;65834;52.364;9.754;2023-06-14T10:36:24;9.80;;;3.20;;
76863;SDS011;65834;52.364;9.754;2023-06-14T10:39:00;6.78;;;2.80;;
76863;SDS011;65834;52.364;9.754;2023-06-14T10:41:34;6.45;;;2.70;;
76863;SDS011;65834;52.364;9.754;2023-06-14T10:46:55;5.75;;;2.58;;
76863;SDS011;65834;52.364;9.754;2023-06-14T10:49:37;9.05;;;2.90;;
76863;SDS011;65834;52.364;9.754;2023-06-14T10:52:12;7.32;;;2.90;;
76863;SDS011;65834;52.364;9.754;2023-06-14T10:54:55;6.05;;;2.70;;
76863;SDS011;65834;52.364;9.754;2023-06-14T10:57:35;7.43;;;3.00;;
76863;SDS011;65834;52.364;9.754;2023-06-14T11:00:17;9.60;;;3.38;;
76863;SDS011;65834;52.364;9.754;2023-06-14T11:03:15;7.10;;;2.85;;
76863;SDS011;65834;52.364;9.754;2023-06-14T11:06:10;7.00;;;2.88;;
76863;SDS011;65834;52.364;9.754;2023-06-14T11:11:49;9.43;;;3.17;;
76863;SDS011;65834;52.364;9.754;2023-06-14T11:14:23;7.15;;;2.90;;
76863;SDS011;65834;52.364;9.754;2023-06-14T11:16:52;7.65;;;3.08;;
76863;SDS011;65834;52.364;9.754;2023-06-14T11:19:24;7.55;;;2.97;;
76863;SDS011;65834;52.364;9.754;2023-06-14T11:21:55;6.15;;;2.92;;
76863;SDS011;65834;52.364;9.754;2023-06-14T11:24:24;5.00;;;2.70;;
76863;SDS011;65834;52.364;9.754;2023-06-14T11:26:55;7.20;;;2.80;;
76863;SDS011;65834;52.364;9.754;2023-06-14T11:29:25;5.32;;;2.83;;
76863;SDS011;65834;52.364;9.754;2023-06-14T11:31:55;9.20;;;3.30;;
76863;SDS011;65834;52.364;9.754;2023-06-14T11:34:27;7.25;;;3.35;;
76863;SDS011;65834;52.364;9.754;2023-06-14T11:36:57;11.75;;;3.30;;
76863;SDS011;65834;52.364;9.754;2023-06-14T11:39:29;8.05;;;3.15;;
76863;SDS011;65834;52.364;9.754;2023-06-14T11:41:59;7.82;;;3.15;;
76863;SDS011;65834;52.364;9.754;2023-06-14T11:44:29;5.60;;;2.70;;
76863;SDS011;65834;52.364;9.754;2023-06-14T11:47:03;7.60;;;3.25;;
76863;SDS011;65834;52.364;9.754;2023-06-14T11:49:37;10.07;;;3.25;;
76863;SDS011;65834;52.364;9.754;2023-06-14T11:55:51;5.97;;;2.78;;
76863;SDS011;65834;52.364;9.754;2023-06-14T11:58:21;7.00;;;3.30;;
76863;SDS011;65834;52.364;9.754;2023-06-14T12:00:51;8.18;;;3.35;;
76863;SDS011;65834;52.364;9.754;2023-06-14T12:03:24;7.75;;;3.20;;
76863;SDS011;65834;52.364;9.754;2023-06-14T12:06:04;9.68;;;3.70;;
76863;SDS011;65834;52.364;9.754;2023-06-14T12:08:35;5.90;;;3.00;;
76863;SDS011;65834;52.364;9.754;2023-06-14T12:11:10;6.65;;;2.92;;
76863;SDS011;65834;52.364;9.754;2023-06-14T12:13:41;7.63;;;3.40;;
76863;SDS011;65834;52.364;9.754;2023-06-14T12:16:12;7.80;;;3.08;;
76863;SDS011;65834;52.364;9.754;2023-06-14T12:18:41;9.18;;;3.30;;
76863;SDS011;65834;52.364;9.754;2023-06-14T12:21:14;6.70;;;3.28;;
76863;SDS011;65834;52.364;9.754;2023-06-14T12:23:45;9.15;;;3.28;;
76863;SDS011;65834;52.364;9.754;2023-06-14T12:26:16;6.82;;;3.15;;
76863;SDS011;65834;52.364;9.754;2023-06-14T12:28:47;8.87;;;3.47;;
76863;SDS011;65834;52.364;9.754;2023-06-14T12:31:17;7.70;;;3.50;;
76863;SDS011;65834;52.364;9.754;2023-06-14T12:33:47;6.88;;;3.17;;
76863;SDS011;65834;52.364;9.754;2023-06-14T12:36:20;7.88;;;3.05;;
76863;SDS011;65834;52.364;9.754;2023-06-14T12:38:49;8.35;;;3.67;;
76863;SDS011;65834;52.364;9.754;2023-06-14T12:41:19;8.32;;;3.38;;
76863;SDS011;65834;52.364;9.754;2023-06-14T12:43:51;8.90;;;3.22;;
76863;SDS011;65834;52.364;9.754;2023-06-14T12:46:20;9.90;;;3.78;;
76863;SDS011;65834;52.364;9.754;2023-06-14T12:48:50;7.70;;;3.20;;
76863;SDS011;65834;52.364;9.754;2023-06-14T12:51:22;9.68;;;3.95;;
76863;SDS011;65834;52.364;9.754;2023-06-14T12:53:52;10.25;;;3.65;;
76863;SDS011;65834;52.364;9.754;2023-06-14T12:56:21;9.65;;;3.67;;
76863;SDS011;65834;52.364;9.754;2023-06-14T12:58:52;7.80;;;3.78;;
76863;SDS011;65834;52.364;9.754;2023-06-14T13:01:22;8.63;;;3.75;;
76863;SDS011;65834;52.364;9.754;2023-06-14T13:03:51;9.20;;;3.55;;
76863;SDS011;65834;52.364;9.754;2023-06-14T13:06:24;10.07;;;3.60;;
76863;SDS011;65834;52.364;9.754;2023-06-14T13:08:54;8.15;;;3.63;;
76863;SDS011;65834;52.364;9.754;2023-06-14T13:11:25;8.77;;;3.83;;
76863;SDS011;65834;52.364;9.754;2023-06-14T13:13:55;7.90;;;3.47;;
76863;SDS011;65834;52.364;9.754;2023-06-14T13:16:29;7.72;;;3.38;;
76863;SDS011;65834;52.364;9.754;2023-06-14T13:18:59;9.68;;;4.18;;
76863;SDS011;65834;52.364;9.754;2023-06-14T13:21:32;8.50;;;3.50;;
76863;SDS011;65834;52.364;9.754;2023-06-14T13:24:02;11.65;;;3.70;;
76863;SDS011;65834;52.364;9.754;2023-06-14T13:26:31;9.90;;;3.92;;
76863;SDS011;65834;52.364;9.754;2023-06-14T13:29:01;9.07;;;4.05;;
76863;SDS011;65834;52.364;9.754;2023-06-14T13:31:31;8.18;;;3.78;;
76863;SDS011;65834;52.364;9.754;2023-06-14T13:34:00;8.55;;;3.95;;
76863;SDS011;65834;52.364;9.754;2023-06-14T13:36:33;11.35;;;4.10;;
76863;SDS011;65834;52.364;9.754;2023-06-14T13:39:03;8.18;;;4.03;;
76863;SDS011;65834;52.364;9.754;2023-06-14T13:41:33;7.30;;;3.63;;
76863;SDS011;65834;52.364;9.754;2023-06-14T13:44:02;10.27;;;3.70;;
76863;SDS011;65834;52.364;9.754;2023-06-14T13:46:33;10.32;;;3.40;;
76863;SDS011;65834;52.364;9.754;2023-06-14T13:49:02;9.70;;;3.67;;
76863;SDS011;65834;52.364;9.754;2023-06-14T13:51:35;8.38;;;3.60;;
76863;SDS011;65834;52.364;9.754;2023-06-14T13:54:04;8.25;;;3.58;;
76863;SDS011;65834;52.364;9.754;2023-06-14T13:56:34;11.40;;;3.83;;
76863;SDS011;65834;52.364;9.754;2023-06-14T13:59:04;12.02;;;3.80;;
76863;SDS011;65834;52.364;9.754;2023-06-14T14:01:33;12.82;;;3.85;;
76863;SDS011;65834;52.364;9.754;2023-06-14T14:04:03;7.68;;;3.72;;
76863;SDS011;65834;52.364;9.754;2023-06-14T14:06:36;11.30;;;4.03;;
76863;SDS011;65834;52.364;9.754;2023-06-14T14:09:06;8.90;;;3.65;;
76863;SDS011;65834;52.364;9.754;2023-06-14T14:11:37;8.05;;;3.58;;
76863;SDS011;65834;52.364;9.754;2023-06-14T14:14:08;10.15;;;4.00;;
76863;SDS011;65834;52.364;9.754;2023-06-14T14:16:38;8.70;;;3.45;;
76863;SDS011;65834;52.364;9.754;2023-06-14T14:19:08;10.68;;;3.85;;
76863;SDS011;65834;52.364;9.754;2023-06-14T14:21:40;7.95;;;3.53;;
76863;SDS011;65834;52.364;9.754;2023-06-14T14:24:09;8.90;;;3.72;;
76863;SDS011;65834;52.364;9.754;2023-06-14T14:26:39;9.18;;;4.10;;
76863;SDS011;65834;52.364;9.754;2023-06-14T14:29:09;7.90;;;3.50;;
76863;SDS011;65834;52.364;9.754;2023-06-14T14:31:40;12.05;;;4.07;;
76863;SDS011;65834;52.364;9.754;2023-06-14T14:34:09;9.45;;;3.90;;
76863;SDS011;65834;52.364;9.754;2023-06-14T14:36:42;11.80;;;4.30;;
76863;SDS011;65834;52.364;9.754;2023-06-14T14:39:11;9.48;;;3.78;;
76863;SDS011;65834;52.364;9.754;2023-06-14T14:41:41;8.63;;;3.35;;
76863;SDS011;65834;52.364;9.754;2023-06-14T14:44:11;10.15;;;3.85;;
76863;SDS011;65834;52.364;9.754;2023-06-14T14:46:40;12.20;;;4.28;;
76863;SDS011;65834;52.364;9.754;2023-06-14T14:49:11;10.73;;;4.20;;
76863;SDS011;65834;52.364;9.754;2023-06-14T14:51:43;10.18;;;4.25;;
76863;SDS011;65834;52.364;9.754;2023-06-14T14:54:12;8.95;;;4.05;;
76863;SDS011;65834;52.364;9.754;2023-06-14T14:56:42;10.60;;;4.05;;
76863;SDS011;65834;52.364;9.754;2023-06-14T15:06:46;7.72;;;3.55;;
76863;SDS011;65834;52.364;9.754;2023-06-14T15:16:44;8.77;;;3.50;;
76863;SDS011;65834;52.364;9.754;2023-06-14T15:19:14;13.38;;;4.07;;
76863;SDS011;65834;52.364;9.754;2023-06-14T15:21:46;9.07;;;4.07;;
76863;SDS011;65834;52.364;9.754;2023-06-14T15:24:16;9.85;;;3.97;;
76863;SDS011;65834;52.364;9.754;2023-06-14T15:27:06;9.55;;;3.42;;
76863;SDS011;65834;52.364;9.754;2023-06-14T15:29:35;10.43;;;4.10;;
76863;SDS011;65834;52.364;9.754;2023-06-14T15:32:06;10.40;;;3.95;;
76863;SDS011;65834;52.364;9.754;2023-06-14T15:34:37;9.37;;;3.97;;
76863;SDS011;65834;52.364;9.754;2023-06-14T15:37:09;8.98;;;4.03;;
76863;SDS011;65834;52.364;9.754;2023-06-14T15:39:39;12.18;;;4.20;;
76863;SDS011;65834;52.364;9.754;2023-06-14T15:42:08;10.25;;;4.28;;
76863;SDS011;65834;52.364;9.754;2023-06-14T15:44:41;10.82;;;3.72;;
76863;SDS011;65834;52.364;9.754;2023-06-14T15:47:11;11.43;;;4.45;;
76863;SDS011;65834;52.364;9.754;2023-06-14T15:49:40;7.80;;;3.35;;
76863;SDS011;65834;52.364;9.754;2023-06-14T15:52:13;10.50;;;4.05;;
76863;SDS011;65834;52.364;9.754;2023-06-14T15:54:42;10.10;;;3.85;;
76863;SDS011;65834;52.364;9.754;2023-06-14T15:57:12;10.18;;;3.88;;
76863;SDS011;65834;52.364;9.754;2023-06-14T15:59:41;9.45;;;3.72;;
76863;SDS011;65834;52.364;9.754;2023-06-14T16:02:10;11.02;;;4.32;;
76863;SDS011;65834;52.364;9.754;2023-06-14T16:04:40;8.13;;;3.78;;
76863;SDS011;65834;52.364;9.754;2023-06-14T16:07:13;11.15;;;3.85;;
76863;SDS011;65834;52.364;9.754;2023-06-14T16:09:43;8.13;;;3.80;;
76863;SDS011;65834;52.364;9.754;2023-06-14T16:12:12;7.93;;;3.83;;